Map

Track Data

SID SEASON NUMBER BASIN SUBBASIN NAME ISO_TIME NATURE LAT LON WMO_WIND WMO_PRES WMO_AGENCY TRACK_TYPE DIST2LAND LANDFALL IFLAG USA_AGENCY USA_ATCF_ID USA_LAT USA_LON USA_RECORD USA_STATUS USA_WIND USA_PRES USA_SSHS USA_R34_NE USA_R34_SE USA_R34_SW USA_R34_NW USA_R50_NE USA_R50_SE USA_R50_SW USA_R50_NW USA_R64_NE USA_R64_SE USA_R64_SW USA_R64_NW USA_POCI USA_ROCI USA_RMW USA_EYE TOKYO_LAT TOKYO_LON TOKYO_GRADE TOKYO_WIND TOKYO_PRES TOKYO_R50_DIR TOKYO_R50_LONG TOKYO_R50_SHORT TOKYO_R30_DIR TOKYO_R30_LONG TOKYO_R30_SHORT TOKYO_LAND CMA_LAT CMA_LON CMA_CAT CMA_WIND CMA_PRES HKO_LAT HKO_LON HKO_CAT HKO_WIND HKO_PRES NEWDELHI_LAT NEWDELHI_LON NEWDELHI_GRADE NEWDELHI_WIND NEWDELHI_PRES NEWDELHI_CI NEWDELHI_DP NEWDELHI_POCI REUNION_LAT REUNION_LON REUNION_TYPE REUNION_WIND REUNION_PRES REUNION_TNUM REUNION_CI REUNION_RMW REUNION_R34_NE REUNION_R34_SE REUNION_R34_SW REUNION_R34_NW REUNION_R50_NE REUNION_R50_SE REUNION_R50_SW REUNION_R50_NW REUNION_R64_NE REUNION_R64_SE REUNION_R64_SW REUNION_R64_NW BOM_LAT BOM_LON BOM_TYPE BOM_WIND BOM_PRES BOM_TNUM BOM_CI BOM_RMW BOM_R34_NE BOM_R34_SE BOM_R34_SW BOM_R34_NW BOM_R50_NE BOM_R50_SE BOM_R50_SW BOM_R50_NW BOM_R64_NE BOM_R64_SE BOM_R64_SW BOM_R64_NW BOM_ROCI BOM_POCI BOM_EYE BOM_POS_METHOD BOM_PRES_METHOD NADI_LAT NADI_LON NADI_CAT NADI_WIND NADI_PRES WELLINGTON_LAT WELLINGTON_LON WELLINGTON_WIND WELLINGTON_PRES DS824_LAT DS824_LON DS824_STAGE DS824_WIND DS824_PRES TD9636_LAT TD9636_LON TD9636_STAGE TD9636_WIND TD9636_PRES TD9635_LAT TD9635_LON TD9635_WIND TD9635_PRES TD9635_ROCI NEUMANN_LAT NEUMANN_LON NEUMANN_CLASS NEUMANN_WIND NEUMANN_PRES MLC_LAT MLC_LON MLC_CLASS MLC_WIND MLC_PRES USA_GUST BOM_GUST BOM_GUST_PER REUNION_GUST REUNION_GUST_PER USA_SEAHGT USA_SEARAD_NE USA_SEARAD_SE USA_SEARAD_SW USA_SEARAD_NW STORM_SPEED STORM_DIR
1916356S10059 1917 72 SI MM NOT_NAMED 1916-12-21 06:00:00 NR -10.2000 59.4000 reunion main 1081 1081 _____O________ -1 -10.2000 59.4000 99 9.90000 1 64
1916356S10059 1917 72 SI MM NOT_NAMED 1916-12-21 09:00:00 NR -10.1824 59.4455 main 1081 1081 _____P________ -1 -10.1824 59.4455 99 1 69
1916356S10059 1917 72 SI MM NOT_NAMED 1916-12-21 12:00:00 NR -10.1676 59.4806 main 1092 1092 _____P________ -1 -10.1676 59.4806 99 1 65
1916356S10059 1917 72 SI MM NOT_NAMED 1916-12-21 15:00:00 NR -10.1586 59.4952 main 1092 1092 _____P________ -1 -10.1586 59.4952 99 0 170
1916356S10059 1917 72 SI MM NOT_NAMED 1916-12-21 18:00:00 NR -10.2066 59.4832 main 1092 1081 _____P____O___ -1 -10.1582 59.4790 99 -10.4000 59.5000 2 1 220
1916356S10059 1917 72 SI MM NOT_NAMED 1916-12-21 21:00:00 NR -10.2394 59.4228 main 1081 1067 _____P____P___ -1 -10.1694 59.4217 99 -10.3793 59.4249 2 2 251
1916356S10059 1917 72 SI MM NOT_NAMED 1916-12-22 00:00:00 TS -10.2850 59.2477 main 1057 1036 _____P___OP___ -1 -10.1948 59.3130 99 -10.4000 58.8000 TC 35 -10.3670 59.3099 2 5 259
1916356S10059 1917 72 SI MM NOT_NAMED 1916-12-22 03:00:00 TS -10.3295 58.9405 main 1026 981 _____P___PP___ -1 -10.2374 59.1425 99 -10.4303 58.1875 TC 35 -10.3712 59.1150 2 7 262
1916356S10059 1917 72 SI MM NOT_NAMED 1916-12-22 06:00:00 TS -10.3909 58.5091 reunion main 981 925 _____O___OO___ -1 -10.3000 58.9000 99 9.90000 -10.5000 57.6000 TC 35 -10.4000 58.8000 2 10 260
1916356S10059 1917 72 SI MM NOT_NAMED 1916-12-22 09:00:00 TS -10.4928 57.9897 main 925 870 _____P___PP___ -1 -10.3841 58.5792 99 -10.6348 57.0500 TC 35 -10.4595 58.3399 2 10 258
1916356S10059 1917 72 SI MM NOT_NAMED 1916-12-22 12:00:00 TS -10.6117 57.4870 main 870 814 _____P___OP___ -1 -10.4872 58.1911 99 -10.8000 56.5000 TC 35 -10.5481 57.7698 2 11 257
1916356S10059 1917 72 SI MM NOT_NAMED 1916-12-22 15:00:00 TS -10.7368 56.9302 main 804 745 _____P___PP___ -1 -10.6054 57.7508 99 -10.9425 55.8999 TC 35 -10.6625 57.1398 2 11 256
1916356S10059 1917 72 SI MM NOT_NAMED 1916-12-22 18:00:00 TS -10.8784 56.3578 main 745 680 _____P___OO___ -1 -10.7353 57.2734 99 -11.1000 55.3000 TC 35 -10.8000 56.5000 2 12 254
1916356S10059 1917 72 SI MM NOT_NAMED 1916-12-22 21:00:00 TS -11.0474 55.7971 main 680 621 _____P___PP___ -1 -10.8731 56.7744 99 -11.3075 54.7201 TC 35 -10.9616 55.8969 2 11 253
1916356S10059 1917 72 SI MM NOT_NAMED 1916-12-23 00:00:00 TS -11.2193 55.2556 main 621 562 _____P___OP___ -1 -11.0154 56.2689 99 -11.5000 54.2000 TC 35 -11.1426 55.2979 2 11 253
1916356S10059 1917 72 SI MM NOT_NAMED 1916-12-23 03:00:00 TS -11.3645 54.7582 main 562 507 _____P___PP___ -1 -11.1588 55.7723 99 -11.6073 53.7773 TC 35 -11.3273 54.7249 2 10 253
1916356S10059 1917 72 SI MM NOT_NAMED 1916-12-23 06:00:00 TS -11.5000 54.3000 reunion main 507 462 _____O___OO___ -1 -11.3000 55.3000 99 9.90000 -11.7000 53.4000 TC 35 -11.5000 54.2000 2 9 253
1916356S10059 1917 72 SI MM NOT_NAMED 1916-12-23 09:00:00 TS -11.6320 53.8763 main 462 413 _____P___PP___ -1 -11.4187 54.8992 99 -11.8425 52.9925 TC 35 -11.6348 53.7372 2 8 252
1916356S10059 1917 72 SI MM NOT_NAMED 1916-12-23 12:00:00 TS -11.7646 53.4794 main 413 368 _____P___OP___ -1 -11.5370 54.5137 99 -12.0000 52.6000 TC 35 -11.7569 53.3246 2 8 251
1916356S10059 1917 72 SI MM NOT_NAMED 1916-12-23 15:00:00 TS -11.8938 53.1093 main 368 334 _____P___PP___ -1 -11.6559 54.1431 99 -12.1500 52.2350 TC 35 -11.8756 52.9498 2 8 250
1916356S10059 1917 72 SI MM NOT_NAMED 1916-12-23 18:00:00 TS -12.0255 52.7623 main 334 285 _____P___OO___ -1 -11.7765 53.7870 99 -12.3000 51.9000 TC 35 -12.0000 52.6000 2 7 248
1916356S10059 1917 72 SI MM NOT_NAMED 1916-12-23 21:00:00 TS -12.1590 52.4302 main 285 251 _____P___PP___ -1 -11.9002 53.4450 99 -12.4424 51.5924 TC 35 -12.1344 52.2533 2 7 246
1916356S10059 1917 72 SI MM NOT_NAMED 1916-12-24 00:00:00 TS -12.3017 52.1147 main 251 213 _____P___OP___ -1 -12.0279 53.1168 99 -12.6000 51.3000 TC 35 -12.2772 51.9272 2 7 244
1916356S10059 1917 72 SI MM NOT_NAMED 1916-12-24 03:00:00 TS -12.4615 51.8073 main 213 179 _____P___PP___ -1 -12.1608 52.8019 99 -12.7924 51.0075 TC 35 -12.4313 51.6126 2 7 241
1916356S10059 1917 72 SI MM NOT_NAMED 1916-12-24 06:00:00 TS -12.6333 51.5000 reunion main 179 142 _____O___OO___ -1 -12.3000 52.5000 99 9.90000 -13.0000 50.7000 TC 35 -12.6000 51.3000 2 7 240
1916356S10059 1917 72 SI MM NOT_NAMED 1916-12-24 09:00:00 TS -12.8151 51.1810 main 142 107 _____P___PP___ -1 -12.4440 52.2179 99 -13.2075 50.3500 TC 35 -12.7936 50.9750 2 7 239
1916356S10059 1917 72 SI MM NOT_NAMED 1916-12-24 12:00:00 TS -12.9980 50.8674 main 107 68 _____P___OP___ -1 -12.5940 51.9523 99 -13.4000 50.0000 TC 35 -12.9998 50.6500 2 7 239
1916356S10059 1917 72 SI MM NOT_NAMED 1916-12-24 15:00:00 TS -13.1711 50.5742 main 68 34 _____P___PP___ -1 -12.7497 51.6977 99 -13.5574 49.6999 TC 35 -13.2061 50.3250 2 7 239
1916356S10059 1917 72 SI MM NOT_NAMED 1916-12-24 18:00:00 TS -13.3369 50.2829 main 34 0 _____P___OO___ -1 -12.9107 51.4487 99 -13.7000 49.4000 TC 35 -13.4000 50.0000 2 7 241
1916356S10059 1917 72 SI MM NOT_NAMED 1916-12-24 21:00:00 TS -13.4969 49.9826 main 0 0 _____P___PP___ -1 -13.0766 51.1999 99 -13.8499 49.0650 TC 35 -13.5642 49.6829 2 7 242
1916356S10059 1917 72 SI MM NOT_NAMED 1916-12-25 00:00:00 TS -13.6539 49.6702 main 0 0 _____P___OP___ -1 -13.2471 50.9458 99 -14.0000 48.7000 TC 35 -13.7147 49.3647 2 7 243
1916356S10059 1917 72 SI MM NOT_NAMED 1916-12-25 03:00:00 TS -13.8099 49.3400 main 0 0 _____P___PP___ -1 -13.4217 50.6810 99 -14.1500 48.3000 TC 35 -13.8579 49.0391 2 7 244
1916356S10059 1917 72 SI MM NOT_NAMED 1916-12-25 06:00:00 TS -13.9667 49.0000 reunion main 0 0 _____O___OO___ -1 -13.6000 50.4000 99 9.90000 -14.3000 47.9000 TC 35 -14.0000 48.7000 2 7 244
1916356S10059 1917 72 SI MM NOT_NAMED 1916-12-25 09:00:00 TS -14.1311 48.6504 main 0 0 _____P___PP___ -1 -13.7975 50.0735 99 -14.4499 47.5424 TC 35 -14.1459 48.3352 2 8 244
1916356S10059 1917 72 SI MM NOT_NAMED 1916-12-25 12:00:00 TS -14.2980 48.2961 main 0 0 _____P___OP___ -1 -14.0017 49.7310 99 -14.6000 47.2000 TC 35 -14.2925 47.9573 2 8 244
1916356S10059 1917 72 SI MM NOT_NAMED 1916-12-25 15:00:00 TS -14.4643 47.9343 main 0 0 _____P___PP___ -1 -14.2076 49.3772 99 -14.7424 46.8499 TC 35 -14.4428 47.5758 2 8 244
1916356S10059 1917 72 SI MM NOT_NAMED 1916-12-25 18:00:00 TS -14.6369 47.5722 main 21 10 _____P___OO___ -1 -14.4106 49.0165 99 -14.9000 46.5000 TC 35 -14.6000 47.2000 2 8 243
1916356S10059 1917 72 SI MM NOT_NAMED 1916-12-25 21:00:00 TS -14.8167 47.2258 main 15 15 _____P___PP___ -1 -14.6060 48.6537 99 -15.0849 46.1649 TC 35 -14.7593 46.8587 2 8 241
1916356S10059 1917 72 SI MM NOT_NAMED 1916-12-26 00:00:00 TS -15.0054 46.8718 main 24 22 _____P___OP___ -1 -14.7892 48.2935 99 -15.3000 45.8000 TC 35 -14.9269 46.5219 2 8 241
1916356S10059 1917 72 SI MM NOT_NAMED 1916-12-26 03:00:00 TS -15.2038 46.4933 main 24 24 _____P___PP___ -1 -14.9554 47.9407 99 -15.5500 45.3650 TC 35 -15.1061 46.1742 2 8 242
1916356S10059 1917 72 SI MM NOT_NAMED 1916-12-26 06:00:00 TS -15.4000 46.1000 reunion main 39 30 _____O___OO___ -1 -15.1000 47.6000 99 9.90000 -15.8000 44.9000 TC 35 -15.3000 45.8000 2 8 244
1916356S10059 1917 72 SI MM NOT_NAMED 1916-12-26 09:00:00 TS -15.5775 45.7109 main 33 24 _____P___PP___ -1 -15.2063 47.2998 99 -16.0074 44.4499 TC 35 -15.5187 45.3829 2 8 245
1916356S10059 1917 72 SI MM NOT_NAMED 1916-12-26 12:00:00 TS -15.7471 45.3165 main 35 11 _____P___OP___ -1 -15.2914 47.0119 99 -16.2000 44.0000 TC 35 -15.7499 44.9376 2 8 246
1916356S10059 1917 72 SI MM NOT_NAMED 1916-12-26 15:00:00 TS -15.9160 44.9209 main 24 24 _____P___PP___ -1 -15.3597 46.7318 99 -16.4074 43.5574 TC 35 -15.9811 44.4735 2 7 247
1916356S10059 1917 72 SI MM NOT_NAMED 1916-12-26 18:00:00 TS -16.0238 44.6474 main 33 22 _____P___OO___ -1 -15.4155 46.4555 99 -16.6000 43.1000 TC 35 -16.2000 44.0000 2 5 250
1916356S10059 1917 72 SI MM NOT_NAMED 1916-12-26 21:00:00 TS -16.0962 44.4035 main 22 22 _____P___PP___ -1 -15.4632 46.1784 99 -16.7603 42.6101 TC 35 -16.3972 43.5252 2 3 258
1916356S10059 1917 72 SI MM NOT_NAMED 1916-12-27 00:00:00 TS -16.0819 44.3546 main 22 22 _____P___OP___ -1 -15.5070 45.8964 99 -16.9000 42.1000 TC 35 -16.5757 43.0504 2 2 51
1916356S10059 1917 72 SI MM NOT_NAMED 1916-12-27 03:00:00 NR -15.9479 44.5952 main 44 39 _____P____P___ -1 -15.5512 45.6051 99 TC -16.7414 42.5754 2 4 53
1916356S10059 1917 72 SI MM NOT_NAMED 1916-12-27 06:00:00 NR -15.8600 44.6600 reunion main 39 39 _____O____O___ -1 -15.6000 45.3000 99 9.90000 -16.9000 42.1000 2 4 50
1916356S10059 1917 72 SI MM NOT_NAMED 1916-12-27 09:00:00 NR -15.6612 44.9462 main 39 39 _____P________ -1 -15.6612 44.9462 99 2 2 330
1916356S10059 1917 72 SI MM NOT_NAMED 1916-12-27 12:00:00 NR -15.7233 44.5773 main 61 55 _____P________ -1 -15.7233 44.5773 99 2 7 260
1916356S10059 1917 72 SI MM NOT_NAMED 1916-12-27 15:00:00 NR -15.7878 44.1997 main 59 59 _____P________ -1 -15.7878 44.1997 99 2 7 260
1916356S10059 1917 72 SI MM NOT_NAMED 1916-12-27 18:00:00 NR -15.8562 43.8196 main 78 78 _____P________ -1 -15.8562 43.8196 99 7 259
1916356S10059 1917 72 SI MM NOT_NAMED 1916-12-27 21:00:00 NR -15.9300 43.4434 main 115 115 _____P________ -1 -15.9300 43.4434 99 7 258
1916356S10059 1917 72 SI MM NOT_NAMED 1916-12-28 00:00:00 NR -16.0109 43.0772 main 142 142 _____P________ -1 -16.0109 43.0772 99 7 256
1916356S10059 1917 72 SI MM NOT_NAMED 1916-12-28 03:00:00 NR -16.1003 42.7273 main 182 182 _____P________ -1 -16.1003 42.7273 99 7 254
1916356S10059 1917 72 SI MM NOT_NAMED 1916-12-28 06:00:00 NR -16.2000 42.4000 reunion main 212 189 _____O________ -1 -16.2000 42.4000 99 9.90000 6 251
1916356S10059 1917 72 SI MM NOT_NAMED 1916-12-28 09:00:00 NR -16.3112 42.0999 main 189 168 _____P________ -1 -16.3112 42.0999 99 6 247
1916356S10059 1917 72 SI MM NOT_NAMED 1916-12-28 12:00:00 NR -16.4328 41.8250 main 168 156 _____P________ -1 -16.4328 41.8250 99 6 244
1916356S10059 1917 72 SI MM NOT_NAMED 1916-12-28 15:00:00 NR -16.5635 41.5716 main 163 146 _____P________ -1 -16.5635 41.5716 99 5 240
1916356S10059 1917 72 SI MM NOT_NAMED 1916-12-28 18:00:00 NR -16.7018 41.3361 main 146 135 _____P________ -1 -16.7018 41.3361 99 5 237
1916356S10059 1917 72 SI MM NOT_NAMED 1916-12-28 21:00:00 NR -16.8462 41.1148 main 135 129 _____P________ -1 -16.8462 41.1148 99 5 235
1916356S10059 1917 72 SI MM NOT_NAMED 1916-12-29 00:00:00 NR -16.9950 40.9042 main 129 117 _____P________ -1 -16.9950 40.9042 99 5 233
1916356S10059 1917 72 SI MM NOT_NAMED 1916-12-29 03:00:00 NR -17.1468 40.7004 main 117 115 _____P________ -1 -17.1468 40.7004 99 5 232
1916356S10059 1917 72 SI MM NOT_NAMED 1916-12-29 06:00:00 NR -17.3000 40.5000 reunion main 116 _____O________ -1 -17.3000 40.5000 99 9.90000 5 231

About IBTrACS Database

This database is a web-friendly format of International Best Track Archive for Climate Stewardship (IBTrACS), a global best track data archive curated by NOAA dating back to 1842.

Updated: 2021-10-08